sensor_id;sensor_type;location;lat;lon;timestamp;pressure;altitude;pressure_sealevel;temperature;humidity
4398;BME280;2213;49.720;7.296;2023-03-31T00:02:22;97383.63;;;11.14;100.00
4398;BME280;2213;49.720;7.296;2023-03-31T00:04:51;97383.25;;;11.10;100.00
4398;BME280;2213;49.720;7.296;2023-03-31T00:07:22;97387.66;;;11.09;100.00
4398;BME280;2213;49.720;7.296;2023-03-31T00:09:53;97376.41;;;11.09;100.00
4398;BME280;2213;49.720;7.296;2023-03-31T00:12:42;97378.00;;;11.10;100.00
4398;BME280;2213;49.720;7.296;2023-03-31T00:15:13;97374.78;;;11.08;100.00
4398;BME280;2213;49.720;7.296;2023-03-31T00:17:41;97362.72;;;11.07;100.00
4398;BME280;2213;49.720;7.296;2023-03-31T00:20:12;97361.53;;;11.03;100.00
4398;BME280;2213;49.720;7.296;2023-03-31T00:22:42;97358.69;;;11.04;100.00
4398;BME280;2213;49.720;7.296;2023-03-31T00:25:16;97347.84;;;11.01;100.00
4398;BME280;2213;49.720;7.296;2023-03-31T00:27:47;97345.03;;;11.02;100.00
4398;BME280;2213;49.720;7.296;2023-03-31T00:30:18;97341.59;;;11.02;100.00
4398;BME280;2213;49.720;7.296;2023-03-31T00:32:47;97341.41;;;11.03;100.00
4398;BME280;2213;49.720;7.296;2023-03-31T00:35:16;97338.97;;;11.02;100.00
4398;BME280;2213;49.720;7.296;2023-03-31T00:37:47;97316.44;;;11.01;100.00
4398;BME280;2213;49.720;7.296;2023-03-31T00:40:19;97309.63;;;11.00;100.00
4398;BME280;2213;49.720;7.296;2023-03-31T00:42:49;97309.81;;;10.98;100.00
4398;BME280;2213;49.720;7.296;2023-03-31T00:45:46;97298.38;;;10.93;100.00
4398;BME280;2213;49.720;7.296;2023-03-31T00:48:19;97295.97;;;10.91;100.00
4398;BME280;2213;49.720;7.296;2023-03-31T00:50:53;97291.97;;;10.89;100.00
4398;BME280;2213;49.720;7.296;2023-03-31T00:53:29;97287.72;;;10.88;100.00
4398;BME280;2213;49.720;7.296;2023-03-31T00:56:09;97287.34;;;10.84;100.00
4398;BME280;2213;49.720;7.296;2023-03-31T00:58:41;97283.91;;;10.84;100.00
4398;BME280;2213;49.720;7.296;2023-03-31T01:01:19;97278.69;;;10.84;100.00
4398;BME280;2213;49.720;7.296;2023-03-31T01:03:51;97272.25;;;10.80;100.00
4398;BME280;2213;49.720;7.296;2023-03-31T01:06:21;97273.88;;;10.81;100.00
4398;BME280;2213;49.720;7.296;2023-03-31T01:08:51;97270.84;;;10.84;100.00
4398;BME280;2213;49.720;7.296;2023-03-31T01:11:25;97257.38;;;10.80;100.00
4398;BME280;2213;49.720;7.296;2023-03-31T01:13:58;97254.97;;;10.79;100.00
4398;BME280;2213;49.720;7.296;2023-03-31T01:16:27;97249.94;;;10.77;100.00
4398;BME280;2213;49.720;7.296;2023-03-31T01:18:58;97249.53;;;10.80;100.00
4398;BME280;2213;49.720;7.296;2023-03-31T01:22:15;97240.25;;;10.84;100.00
4398;BME280;2213;49.720;7.296;2023-03-31T01:28:38;97220.34;;;10.83;100.00
4398;BME280;2213;49.720;7.296;2023-03-31T01:31:51;97204.88;;;10.82;100.00
4398;BME280;2213;49.720;7.296;2023-03-31T01:35:25;97199.59;;;10.88;100.00
4398;BME280;2213;49.720;7.296;2023-03-31T01:38:43;97189.34;;;10.87;100.00
4398;BME280;2213;49.720;7.296;2023-03-31T01:41:40;97176.06;;;10.88;100.00
4398;BME280;2213;49.720;7.296;2023-03-31T01:44:21;97169.03;;;10.89;100.00
4398;BME280;2213;49.720;7.296;2023-03-31T01:46:57;97173.59;;;10.93;100.00
4398;BME280;2213;49.720;7.296;2023-03-31T01:49:39;97167.19;;;10.96;100.00
4398;BME280;2213;49.720;7.296;2023-03-31T01:52:21;97165.13;;;10.98;100.00
4398;BME280;2213;49.720;7.296;2023-03-31T01:54:57;97153.44;;;11.00;100.00
4398;BME280;2213;49.720;7.296;2023-03-31T01:57:34;97149.44;;;10.98;100.00
4398;BME280;2213;49.720;7.296;2023-03-31T02:00:09;97146.81;;;10.98;100.00
4398;BME280;2213;49.720;7.296;2023-03-31T02:02:46;97142.97;;;11.00;100.00
4398;BME280;2213;49.720;7.296;2023-03-31T02:05:21;97134.19;;;10.95;100.00
4398;BME280;2213;49.720;7.296;2023-03-31T02:07:56;97133.75;;;10.98;100.00
4398;BME280;2213;49.720;7.296;2023-03-31T02:10:30;97125.47;;;11.01;100.00
4398;BME280;2213;49.720;7.296;2023-03-31T02:13:03;97115.00;;;11.01;100.00
4398;BME280;2213;49.720;7.296;2023-03-31T02:15:37;97111.59;;;11.00;100.00
4398;BME280;2213;49.720;7.296;2023-03-31T02:18:12;97107.97;;;11.01;100.00
4398;BME280;2213;49.720;7.296;2023-03-31T02:20:49;97092.50;;;11.00;100.00
4398;BME280;2213;49.720;7.296;2023-03-31T02:23:23;97078.63;;;10.99;100.00
4398;BME280;2213;49.720;7.296;2023-03-31T02:26:01;97070.97;;;10.98;100.00
4398;BME280;2213;49.720;7.296;2023-03-31T02:28:34;97063.72;;;11.00;100.00
4398;BME280;2213;49.720;7.296;2023-03-31T02:31:22;97058.50;;;11.00;100.00
4398;BME280;2213;49.720;7.296;2023-03-31T02:33:55;97048.03;;;11.00;100.00
4398;BME280;2213;49.720;7.296;2023-03-31T02:36:24;97042.81;;;11.00;100.00
4398;BME280;2213;49.720;7.296;2023-03-31T02:38:58;97039.56;;;10.98;100.00
4398;BME280;2213;49.720;7.296;2023-03-31T02:41:31;97036.38;;;10.96;100.00
4398;BME280;2213;49.720;7.296;2023-03-31T02:44:03;97025.13;;;10.95;100.00
4398;BME280;2213;49.720;7.296;2023-03-31T02:46:32;97012.25;;;10.94;100.00
4398;BME280;2213;49.720;7.296;2023-03-31T02:49:06;97007.00;;;10.94;100.00
4398;BME280;2213;49.720;7.296;2023-03-31T02:55:23;96994.81;;;10.88;100.00
4398;BME280;2213;49.720;7.296;2023-03-31T02:58:25;96975.91;;;10.86;100.00
4398;BME280;2213;49.720;7.296;2023-03-31T03:01:48;96960.22;;;10.86;100.00
4398;BME280;2213;49.720;7.296;2023-03-31T03:04:41;96953.59;;;10.83;100.00
4398;BME280;2213;49.720;7.296;2023-03-31T03:07:26;96944.75;;;10.84;100.00
4398;BME280;2213;49.720;7.296;2023-03-31T03:10:05;96953.22;;;10.80;100.00
4398;BME280;2213;49.720;7.296;2023-03-31T03:12:47;96916.84;;;10.78;100.00
4398;BME280;2213;49.720;7.296;2023-03-31T03:15:23;96927.06;;;10.80;100.00
4398;BME280;2213;49.720;7.296;2023-03-31T03:17:57;96904.56;;;10.79;100.00
4398;BME280;2213;49.720;7.296;2023-03-31T03:20:27;96888.88;;;10.79;100.00
4398;BME280;2213;49.720;7.296;2023-03-31T03:22:57;96898.19;;;10.75;100.00
4398;BME280;2213;49.720;7.296;2023-03-31T03:25:28;96908.31;;;10.65;100.00
4398;BME280;2213;49.720;7.296;2023-03-31T03:27:58;96911.56;;;10.60;100.00
4398;BME280;2213;49.720;7.296;2023-03-31T03:30:29;96901.13;;;10.60;100.00
4398;BME280;2213;49.720;7.296;2023-03-31T03:32:59;96901.19;;;10.53;100.00
4398;BME280;2213;49.720;7.296;2023-03-31T03:35:29;96902.06;;;10.47;100.00
4398;BME280;2213;49.720;7.296;2023-03-31T03:37:59;96906.47;;;10.47;100.00
4398;BME280;2213;49.720;7.296;2023-03-31T03:40:29;96894.22;;;10.47;100.00
4398;BME280;2213;49.720;7.296;2023-03-31T03:42:58;96891.00;;;10.45;100.00
4398;BME280;2213;49.720;7.296;2023-03-31T03:45:28;96874.75;;;10.43;100.00
4398;BME280;2213;49.720;7.296;2023-03-31T03:47:59;96869.28;;;10.45;100.00
4398;BME280;2213;49.720;7.296;2023-03-31T03:50:29;96867.91;;;10.42;100.00
4398;BME280;2213;49.720;7.296;2023-03-31T03:52:58;96867.53;;;10.39;100.00
4398;BME280;2213;49.720;7.296;2023-03-31T03:55:28;96868.19;;;10.34;100.00
4398;BME280;2213;49.720;7.296;2023-03-31T03:57:59;96865.34;;;10.36;100.00
4398;BME280;2213;49.720;7.296;2023-03-31T04:00:28;96880.03;;;10.37;100.00
4398;BME280;2213;49.720;7.296;2023-03-31T04:02:58;96873.44;;;10.34;100.00
4398;BME280;2213;49.720;7.296;2023-03-31T04:05:28;96881.84;;;10.36;100.00
4398;BME280;2213;49.720;7.296;2023-03-31T04:07:59;96884.44;;;10.36;100.00
4398;BME280;2213;49.720;7.296;2023-03-31T04:10:30;96875.59;;;10.37;100.00
4398;BME280;2213;49.720;7.296;2023-03-31T04:13:00;96874.81;;;10.37;100.00
4398;BME280;2213;49.720;7.296;2023-03-31T04:15:28;96866.72;;;10.38;100.00
4398;BME280;2213;49.720;7.296;2023-03-31T04:18:00;96842.63;;;10.36;100.00
4398;BME280;2213;49.720;7.296;2023-03-31T04:20:29;96843.22;;;10.38;100.00
4398;BME280;2213;49.720;7.296;2023-03-31T04:23:00;96845.41;;;10.41;100.00
4398;BME280;2213;49.720;7.296;2023-03-31T04:25:32;96849.03;;;10.40;100.00
4398;BME280;2213;49.720;7.296;2023-03-31T04:28:07;96856.66;;;10.42;100.00
4398;BME280;2213;49.720;7.296;2023-03-31T04:30:38;96861.06;;;10.41;100.00
4398;BME280;2213;49.720;7.296;2023-03-31T04:33:10;96853.03;;;10.43;100.00
4398;BME280;2213;49.720;7.296;2023-03-31T04:35:43;96844.38;;;10.42;100.00
4398;BME280;2213;49.720;7.296;2023-03-31T04:38:21;96846.78;;;10.44;100.00
4398;BME280;2213;49.720;7.296;2023-03-31T04:40:53;96845.00;;;10.44;100.00
4398;BME280;2213;49.720;7.296;2023-03-31T04:43:25;96816.44;;;10.43;100.00
4398;BME280;2213;49.720;7.296;2023-03-31T04:45:55;96787.50;;;10.44;100.00
4398;BME280;2213;49.720;7.296;2023-03-31T04:48:25;96779.06;;;10.42;100.00
4398;BME280;2213;49.720;7.296;2023-03-31T04:50:55;96783.47;;;10.42;100.00
4398;BME280;2213;49.720;7.296;2023-03-31T04:53:25;96777.88;;;10.38;100.00
4398;BME280;2213;49.720;7.296;2023-03-31T04:55:54;96770.03;;;10.38;100.00
4398;BME280;2213;49.720;7.296;2023-03-31T04:58:24;96758.59;;;10.39;100.00
4398;BME280;2213;49.720;7.296;2023-03-31T05:00:53;96755.41;;;10.37;100.00
4398;BME280;2213;49.720;7.296;2023-03-31T05:03:26;96749.38;;;10.37;100.00
4398;BME280;2213;49.720;7.296;2023-03-31T05:05:55;96740.28;;;10.39;100.00
4398;BME280;2213;49.720;7.296;2023-03-31T05:08:25;96732.47;;;10.39;100.00
4398;BME280;2213;49.720;7.296;2023-03-31T05:10:55;96719.41;;;10.39;100.00
4398;BME280;2213;49.720;7.296;2023-03-31T05:13:24;96706.31;;;10.39;100.00
4398;BME280;2213;49.720;7.296;2023-03-31T05:15:54;96683.00;;;10.38;100.00
4398;BME280;2213;49.720;7.296;2023-03-31T05:18:26;96667.34;;;10.38;100.00
4398;BME280;2213;49.720;7.296;2023-03-31T05:20:56;96670.53;;;10.40;100.00
4398;BME280;2213;49.720;7.296;2023-03-31T05:23:26;96656.13;;;10.37;100.00
4398;BME280;2213;49.720;7.296;2023-03-31T05:25:55;96647.03;;;10.40;100.00
4398;BME280;2213;49.720;7.296;2023-03-31T05:28:25;96642.00;;;10.38;100.00
4398;BME280;2213;49.720;7.296;2023-03-31T05:30:59;96629.97;;;10.37;100.00
4398;BME280;2213;49.720;7.296;2023-03-31T05:33:30;96624.75;;;10.37;100.00
4398;BME280;2213;49.720;7.296;2023-03-31T05:36:01;96608.84;;;10.39;100.00
4398;BME280;2213;49.720;7.296;2023-03-31T05:38:31;96609.44;;;10.41;100.00
4398;BME280;2213;49.720;7.296;2023-03-31T05:41:02;96599.53;;;10.43;100.00
4398;BME280;2213;49.720;7.296;2023-03-31T05:43:33;96598.28;;;10.45;100.00
4398;BME280;2213;49.720;7.296;2023-03-31T05:46:04;96588.44;;;10.47;100.00
4398;BME280;2213;49.720;7.296;2023-03-31T05:48:36;96584.00;;;10.48;100.00
4398;BME280;2213;49.720;7.296;2023-03-31T05:51:07;96590.47;;;10.45;100.00
4398;BME280;2213;49.720;7.296;2023-03-31T05:53:36;96586.84;;;10.46;100.00
4398;BME280;2213;49.720;7.296;2023-03-31T05:56:08;96596.84;;;10.49;100.00
4398;BME280;2213;49.720;7.296;2023-03-31T05:58:38;96590.38;;;10.52;100.00
4398;BME280;2213;49.720;7.296;2023-03-31T06:01:12;96600.25;;;10.50;100.00
4398;BME280;2213;49.720;7.296;2023-03-31T06:03:49;96605.47;;;10.50;100.00
4398;BME280;2213;49.720;7.296;2023-03-31T06:06:20;96628.19;;;10.49;100.00
4398;BME280;2213;49.720;7.296;2023-03-31T06:08:51;96633.44;;;10.49;100.00
4398;BME280;2213;49.720;7.296;2023-03-31T06:11:22;96646.50;;;10.49;100.00
4398;BME280;2213;49.720;7.296;2023-03-31T06:13:52;96647.09;;;10.51;100.00
4398;BME280;2213;49.720;7.296;2023-03-31T06:16:22;96648.22;;;10.55;100.00
4398;BME280;2213;49.720;7.296;2023-03-31T06:18:53;96625.06;;;10.59;100.00
4398;BME280;2213;49.720;7.296;2023-03-31T06:21:23;96631.88;;;10.60;100.00
4398;BME280;2213;49.720;7.296;2023-03-31T06:23:52;96640.53;;;10.60;100.00
4398;BME280;2213;49.720;7.296;2023-03-31T06:26:23;96646.91;;;10.65;100.00
4398;BME280;2213;49.720;7.296;2023-03-31T06:28:54;96644.06;;;10.66;100.00
4398;BME280;2213;49.720;7.296;2023-03-31T06:31:25;96652.69;;;10.67;100.00
4398;BME280;2213;49.720;7.296;2023-03-31T06:33:56;96637.59;;;10.69;100.00
4398;BME280;2213;49.720;7.296;2023-03-31T06:36:26;96650.22;;;10.72;100.00
4398;BME280;2213;49.720;7.296;2023-03-31T06:38:55;96641.34;;;10.73;100.00
4398;BME280;2213;49.720;7.296;2023-03-31T06:41:26;96629.31;;;10.72;100.00
4398;BME280;2213;49.720;7.296;2023-03-31T06:43:56;96626.72;;;10.72;100.00
4398;BME280;2213;49.720;7.296;2023-03-31T06:46:26;96618.41;;;10.75;100.00
4398;BME280;2213;49.720;7.296;2023-03-31T06:48:58;96616.59;;;10.75;100.00
4398;BME280;2213;49.720;7.296;2023-03-31T06:51:29;96626.81;;;10.77;100.00
4398;BME280;2213;49.720;7.296;2023-03-31T06:53:59;96624.19;;;10.77;100.00
4398;BME280;2213;49.720;7.296;2023-03-31T06:56:29;96627.84;;;10.76;100.00
4398;BME280;2213;49.720;7.296;2023-03-31T06:58:59;96621.03;;;10.75;100.00
4398;BME280;2213;49.720;7.296;2023-03-31T07:01:29;96631.94;;;10.72;100.00
4398;BME280;2213;49.720;7.296;2023-03-31T07:04:06;96624.66;;;10.74;100.00
4398;BME280;2213;49.720;7.296;2023-03-31T07:06:36;96617.41;;;10.76;100.00
4398;BME280;2213;49.720;7.296;2023-03-31T07:09:07;96617.59;;;10.74;100.00
4398;BME280;2213;49.720;7.296;2023-03-31T07:11:37;96612.38;;;10.74;100.00
4398;BME280;2213;49.720;7.296;2023-03-31T07:14:08;96604.88;;;10.78;100.00
4398;BME280;2213;49.720;7.296;2023-03-31T07:16:37;96603.44;;;10.82;100.00
4398;BME280;2213;49.720;7.296;2023-03-31T07:19:09;96598.53;;;10.85;100.00
4398;BME280;2213;49.720;7.296;2023-03-31T07:21:41;96599.09;;;10.87;100.00
4398;BME280;2213;49.720;7.296;2023-03-31T07:24:11;96604.34;;;10.87;100.00
4398;BME280;2213;49.720;7.296;2023-03-31T07:26:40;96599.34;;;10.86;100.00
4398;BME280;2213;49.720;7.296;2023-03-31T07:29:09;96605.13;;;10.88;100.00
4398;BME280;2213;49.720;7.296;2023-03-31T07:31:39;96604.13;;;10.89;100.00
4398;BME280;2213;49.720;7.296;2023-03-31T07:34:10;96600.91;;;10.87;100.00
4398;BME280;2213;49.720;7.296;2023-03-31T07:36:39;96597.53;;;10.86;100.00
4398;BME280;2213;49.720;7.296;2023-03-31T07:39:09;96593.31;;;10.85;100.00
4398;BME280;2213;49.720;7.296;2023-03-31T07:41:38;96610.03;;;10.84;100.00
4398;BME280;2213;49.720;7.296;2023-03-31T07:44:08;96588.88;;;10.86;100.00
4398;BME280;2213;49.720;7.296;2023-03-31T07:46:39;96581.72;;;10.81;100.00
4398;BME280;2213;49.720;7.296;2023-03-31T07:49:11;96581.03;;;10.86;100.00
4398;BME280;2213;49.720;7.296;2023-03-31T07:51:43;96583.75;;;10.91;100.00
4398;BME280;2213;49.720;7.296;2023-03-31T07:54:13;96575.25;;;10.95;100.00
4398;BME280;2213;49.720;7.296;2023-03-31T07:56:42;96566.41;;;10.96;100.00
4398;BME280;2213;49.720;7.296;2023-03-31T07:59:12;96574.13;;;11.03;100.00
4398;BME280;2213;49.720;7.296;2023-03-31T08:01:40;96566.84;;;11.05;100.00
4398;BME280;2213;49.720;7.296;2023-03-31T08:04:13;96576.84;;;11.08;100.00
4398;BME280;2213;49.720;7.296;2023-03-31T08:06:42;96555.25;;;11.13;100.00
4398;BME280;2213;49.720;7.296;2023-03-31T08:09:12;96536.94;;;11.13;100.00
4398;BME280;2213;49.720;7.296;2023-03-31T08:11:41;96540.47;;;11.18;100.00
4398;BME280;2213;49.720;7.296;2023-03-31T08:14:15;96555.69;;;11.21;100.00
4398;BME280;2213;49.720;7.296;2023-03-31T08:17:00;96563.44;;;11.16;100.00
4398;BME280;2213;49.720;7.296;2023-03-31T08:19:31;96550.81;;;11.13;100.00
4398;BME280;2213;49.720;7.296;2023-03-31T08:22:01;96540.13;;;11.15;100.00
4398;BME280;2213;49.720;7.296;2023-03-31T08:24:30;96536.72;;;11.14;100.00
4398;BME280;2213;49.720;7.296;2023-03-31T08:27:00;96526.69;;;11.11;100.00
4398;BME280;2213;49.720;7.296;2023-03-31T08:29:30;96532.50;;;11.13;100.00
4398;BME280;2213;49.720;7.296;2023-03-31T08:32:00;96533.41;;;11.19;100.00
4398;BME280;2213;49.720;7.296;2023-03-31T08:34:32;96518.63;;;11.24;100.00
4398;BME280;2213;49.720;7.296;2023-03-31T08:37:02;96529.66;;;11.26;100.00
4398;BME280;2213;49.720;7.296;2023-03-31T08:39:32;96515.22;;;11.24;100.00
4398;BME280;2213;49.720;7.296;2023-03-31T08:42:10;96518.16;;;11.27;100.00
4398;BME280;2213;49.720;7.296;2023-03-31T08:44:58;96517.13;;;11.28;100.00
4398;BME280;2213;49.720;7.296;2023-03-31T08:47:33;96512.00;;;11.33;100.00
4398;BME280;2213;49.720;7.296;2023-03-31T08:50:11;96526.47;;;11.36;100.00
4398;BME280;2213;49.720;7.296;2023-03-31T08:52:47;96525.44;;;11.37;100.00
4398;BME280;2213;49.720;7.296;2023-03-31T08:55:26;96526.56;;;11.41;100.00
4398;BME280;2213;49.720;7.296;2023-03-31T08:58:05;96531.56;;;11.42;100.00
4398;BME280;2213;49.720;7.296;2023-03-31T09:00:45;96516.31;;;11.51;100.00
4398;BME280;2213;49.720;7.296;2023-03-31T09:03:27;96515.63;;;11.55;100.00
4398;BME280;2213;49.720;7.296;2023-03-31T09:06:05;96512.31;;;11.60;100.00
4398;BME280;2213;49.720;7.296;2023-03-31T09:08:38;96498.31;;;11.66;100.00
4398;BME280;2213;49.720;7.296;2023-03-31T09:11:13;96494.19;;;11.70;100.00
4398;BME280;2213;49.720;7.296;2023-03-31T09:14:27;96533.81;;;11.74;100.00
4398;BME280;2213;49.720;7.296;2023-03-31T09:17:15;96558.28;;;11.68;100.00
4398;BME280;2213;49.720;7.296;2023-03-31T09:19:53;96534.41;;;11.52;100.00
4398;BME280;2213;49.720;7.296;2023-03-31T09:22:31;96529.75;;;11.43;100.00
4398;BME280;2213;49.720;7.296;2023-03-31T09:25:09;96529.53;;;11.33;100.00
4398;BME280;2213;49.720;7.296;2023-03-31T09:27:42;96532.41;;;11.31;100.00
4398;BME280;2213;49.720;7.296;2023-03-31T09:30:19;96534.88;;;11.26;100.00
4398;BME280;2213;49.720;7.296;2023-03-31T09:33:00;96523.28;;;11.22;100.00
4398;BME280;2213;49.720;7.296;2023-03-31T09:35:32;96521.59;;;11.28;100.00
4398;BME280;2213;49.720;7.296;2023-03-31T09:38:03;96515.66;;;11.32;100.00
4398;BME280;2213;49.720;7.296;2023-03-31T09:40:33;96516.91;;;11.30;100.00
4398;BME280;2213;49.720;7.296;2023-03-31T09:43:06;96512.56;;;11.35;100.00
4398;BME280;2213;49.720;7.296;2023-03-31T09:45:36;96511.22;;;11.44;100.00
4398;BME280;2213;49.720;7.296;2023-03-31T09:48:13;96504.59;;;11.53;100.00
4398;BME280;2213;49.720;7.296;2023-03-31T09:50:49;96501.16;;;11.65;100.00
4398;BME280;2213;49.720;7.296;2023-03-31T09:53:30;96506.94;;;11.67;100.00
4398;BME280;2213;49.720;7.296;2023-03-31T09:56:03;96494.31;;;11.63;100.00
4398;BME280;2213;49.720;7.296;2023-03-31T09:58:40;96485.34;;;11.71;100.00
4398;BME280;2213;49.720;7.296;2023-03-31T10:01:12;96490.44;;;11.78;100.00
4398;BME280;2213;49.720;7.296;2023-03-31T10:03:49;96489.06;;;11.87;100.00
4398;BME280;2213;49.720;7.296;2023-03-31T10:06:20;96476.63;;;11.94;100.00
4398;BME280;2213;49.720;7.296;2023-03-31T10:08:54;96476.03;;;11.92;100.00
4398;BME280;2213;49.720;7.296;2023-03-31T10:11:26;96472.88;;;11.90;100.00
4398;BME280;2213;49.720;7.296;2023-03-31T10:14:02;96477.16;;;11.96;100.00
4398;BME280;2213;49.720;7.296;2023-03-31T10:16:42;96472.94;;;11.95;100.00
4398;BME280;2213;49.720;7.296;2023-03-31T10:19:18;96461.78;;;11.99;100.00
4398;BME280;2213;49.720;7.296;2023-03-31T10:21:57;96453.22;;;12.04;100.00
4398;BME280;2213;49.720;7.296;2023-03-31T10:24:37;96456.72;;;12.09;100.00
4398;BME280;2213;49.720;7.296;2023-03-31T10:27:22;96459.44;;;12.15;100.00
4398;BME280;2213;49.720;7.296;2023-03-31T10:29:55;96451.16;;;12.23;100.00
4398;BME280;2213;49.720;7.296;2023-03-31T10:32:27;96439.28;;;12.32;100.00
4398;BME280;2213;49.720;7.296;2023-03-31T10:35:02;96445.78;;;12.29;100.00
4398;BME280;2213;49.720;7.296;2023-03-31T10:37:35;96448.50;;;12.34;100.00
4398;BME280;2213;49.720;7.296;2023-03-31T10:40:17;96459.53;;;12.36;100.00
4398;BME280;2213;49.720;7.296;2023-03-31T10:42:58;96455.97;;;12.42;100.00
4398;BME280;2213;49.720;7.296;2023-03-31T10:45:36;96461.28;;;12.47;100.00
4398;BME280;2213;49.720;7.296;2023-03-31T10:48:20;96468.59;;;12.45;100.00
4398;BME280;2213;49.720;7.296;2023-03-31T10:50:53;96463.38;;;12.45;100.00
4398;BME280;2213;49.720;7.296;2023-03-31T10:53:27;96448.28;;;12.52;100.00
4398;BME280;2213;49.720;7.296;2023-03-31T10:56:23;96449.28;;;12.51;100.00
4398;BME280;2213;49.720;7.296;2023-03-31T10:59:40;96453.03;;;12.39;100.00
4398;BME280;2213;49.720;7.296;2023-03-31T11:05:34;96453.47;;;12.36;100.00
4398;BME280;2213;49.720;7.296;2023-03-31T11:08:41;96441.59;;;12.45;100.00
4398;BME280;2213;49.720;7.296;2023-03-31T11:11:45;96434.44;;;12.40;100.00
4398;BME280;2213;49.720;7.296;2023-03-31T11:14:28;96430.84;;;12.46;100.00
4398;BME280;2213;49.720;7.296;2023-03-31T11:17:11;96457.53;;;12.43;100.00
4398;BME280;2213;49.720;7.296;2023-03-31T11:19:54;96470.09;;;12.41;100.00
4398;BME280;2213;49.720;7.296;2023-03-31T11:22:35;96461.00;;;12.16;100.00
4398;BME280;2213;49.720;7.296;2023-03-31T11:25:21;96454.94;;;11.98;100.00
4398;BME280;2213;49.720;7.296;2023-03-31T11:28:45;96457.97;;;11.90;100.00
4398;BME280;2213;49.720;7.296;2023-03-31T11:31:45;96450.50;;;11.99;100.00
4398;BME280;2213;49.720;7.296;2023-03-31T11:34:57;96442.81;;;12.09;100.00
4398;BME280;2213;49.720;7.296;2023-03-31T11:37:48;96436.19;;;12.18;100.00
4398;BME280;2213;49.720;7.296;2023-03-31T11:40:50;96436.03;;;12.25;100.00
4398;BME280;2213;49.720;7.296;2023-03-31T11:43:31;96422.28;;;12.34;100.00
4398;BME280;2213;49.720;7.296;2023-03-31T11:46:08;96434.53;;;12.45;100.00
4398;BME280;2213;49.720;7.296;2023-03-31T11:48:46;96441.16;;;12.53;100.00
4398;BME280;2213;49.720;7.296;2023-03-31T11:51:21;96412.09;;;12.54;100.00
4398;BME280;2213;49.720;7.296;2023-03-31T11:53:55;96427.34;;;12.57;100.00
4398;BME280;2213;49.720;7.296;2023-03-31T11:56:33;96437.22;;;12.50;100.00
4398;BME280;2213;49.720;7.296;2023-03-31T11:59:06;96437.22;;;12.50;100.00
4398;BME280;2213;49.720;7.296;2023-03-31T12:01:43;96430.22;;;12.39;100.00
4398;BME280;2213;49.720;7.296;2023-03-31T12:04:27;96432.44;;;12.47;100.00
4398;BME280;2213;49.720;7.296;2023-03-31T12:07:19;96427.91;;;12.43;100.00
4398;BME280;2213;49.720;7.296;2023-03-31T12:09:57;96444.84;;;12.35;100.00
4398;BME280;2213;49.720;7.296;2023-03-31T12:12:39;96455.63;;;12.22;100.00
4398;BME280;2213;49.720;7.296;2023-03-31T12:15:20;96458.91;;;12.01;100.00
4398;BME280;2213;49.720;7.296;2023-03-31T12:17:58;96448.25;;;11.91;100.00
4398;BME280;2213;49.720;7.296;2023-03-31T12:20:32;96443.41;;;11.83;100.00
4398;BME280;2213;49.720;7.296;2023-03-31T12:23:11;96446.28;;;11.70;100.00
4398;BME280;2213;49.720;7.296;2023-03-31T12:25:48;96451.94;;;11.67;100.00
4398;BME280;2213;49.720;7.296;2023-03-31T12:28:21;96455.50;;;11.72;100.00
4398;BME280;2213;49.720;7.296;2023-03-31T12:30:51;96456.31;;;11.73;100.00
4398;BME280;2213;49.720;7.296;2023-03-31T12:33:29;96445.03;;;11.60;100.00
4398;BME280;2213;49.720;7.296;2023-03-31T12:36:17;96419.53;;;11.56;100.00
4398;BME280;2213;49.720;7.296;2023-03-31T12:39:12;96416.16;;;11.55;100.00
4398;BME280;2213;49.720;7.296;2023-03-31T12:45:01;96402.03;;;11.56;100.00
4398;BME280;2213;49.720;7.296;2023-03-31T12:47:58;96404.97;;;11.60;100.00
4398;BME280;2213;49.720;7.296;2023-03-31T12:50:48;96401.19;;;11.68;100.00
4398;BME280;2213;49.720;7.296;2023-03-31T12:53:31;96397.56;;;11.69;100.00
4398;BME280;2213;49.720;7.296;2023-03-31T12:56:03;96406.91;;;11.65;100.00
4398;BME280;2213;49.720;7.296;2023-03-31T12:58:50;96403.38;;;11.71;100.00
4398;BME280;2213;49.720;7.296;2023-03-31T13:01:21;96407.59;;;11.72;100.00
4398;BME280;2213;49.720;7.296;2023-03-31T13:04:16;96401.66;;;11.65;100.00
4398;BME280;2213;49.720;7.296;2023-03-31T13:06:54;96398.94;;;11.71;100.00
4398;BME280;2213;49.720;7.296;2023-03-31T13:09:49;96396.16;;;11.78;100.00
4398;BME280;2213;49.720;7.296;2023-03-31T13:12:27;96396.81;;;11.85;100.00
4398;BME280;2213;49.720;7.296;2023-03-31T13:15:11;96394.16;;;11.96;100.00
4398;BME280;2213;49.720;7.296;2023-03-31T13:17:55;96381.75;;;12.08;100.00
4398;BME280;2213;49.720;7.296;2023-03-31T13:20:56;96384.31;;;12.20;100.00
4398;BME280;2213;49.720;7.296;2023-03-31T13:23:33;96373.44;;;12.28;100.00
4398;BME280;2213;49.720;7.296;2023-03-31T13:26:04;96370.97;;;12.38;100.00
4398;BME280;2213;49.720;7.296;2023-03-31T13:28:39;96368.25;;;12.50;100.00
4398;BME280;2213;49.720;7.296;2023-03-31T13:31:10;96347.66;;;12.58;100.00
4398;BME280;2213;49.720;7.296;2023-03-31T13:33:47;96345.31;;;12.79;100.00
4398;BME280;2213;49.720;7.296;2023-03-31T13:37:02;96336.72;;;12.83;100.00
4398;BME280;2213;49.720;7.296;2023-03-31T13:40:17;96324.03;;;12.97;100.00
4398;BME280;2213;49.720;7.296;2023-03-31T13:43:13;96339.91;;;13.07;100.00
4398;BME280;2213;49.720;7.296;2023-03-31T13:46:03;96337.91;;;13.14;100.00
4398;BME280;2213;49.720;7.296;2023-03-31T13:48:49;96359.88;;;13.08;100.00
4398;BME280;2213;49.720;7.296;2023-03-31T13:51:36;96368.66;;;12.97;100.00
4398;BME280;2213;49.720;7.296;2023-03-31T13:54:50;96348.47;;;12.81;100.00
4398;BME280;2213;49.720;7.296;2023-03-31T14:04:34;96360.84;;;12.63;100.00
4398;BME280;2213;49.720;7.296;2023-03-31T14:07:11;96349.72;;;12.73;100.00
4398;BME280;2213;49.720;7.296;2023-03-31T14:09:45;96343.19;;;12.76;100.00
4398;BME280;2213;49.720;7.296;2023-03-31T14:12:31;96333.31;;;12.83;100.00
4398;BME280;2213;49.720;7.296;2023-03-31T14:15:00;96331.91;;;12.97;100.00
4398;BME280;2213;49.720;7.296;2023-03-31T14:17:36;96327.28;;;13.04;100.00
4398;BME280;2213;49.720;7.296;2023-03-31T14:20:44;96314.81;;;13.16;100.00
4398;BME280;2213;49.720;7.296;2023-03-31T14:23:34;96304.28;;;13.33;100.00